Time;durP1;ratioP1;P1;durP2;ratioP2;P2;SDS_P1;SDS_P2;PMS_P1;PMS_P2;Temp;Humidity;BMP_temperature;BMP_pressure;BME280_temperature;BME280_humidity;BME280_pressure;Samples;Min_cycle;Max_cycle;Signal;HPM_P1;HPM_P2
2021/08/15 00:03:17;;;;;;;25.95;5.95;;;31.30;28.70;;;;;;21125593;27;81019;-73
2021/08/15 00:13:18;;;;;;;18.50;5.97;;;31.30;29.30;;;;;;21125872;27;80751;-73
2021/08/15 00:23:20;;;;;;;27.50;6.05;;;31.20;29.70;;;;;;21124493;27;81102;-73
2021/08/15 00:33:22;;;;;;;24.08;5.40;;;31.00;29.90;;;;;;21124128;27;80890;-73
2021/08/15 00:43:27;;;;;;;20.90;5.63;;;30.70;30.30;;;;;;21142059;27;80999;-74
2021/08/15 00:53:49;;;;;;;20.38;6.15;;;30.40;30.60;;;;;;21140234;27;81443;-73
2021/08/15 01:03:51;;;;;;;25.35;6.20;;;30.20;31.00;;;;;;21139800;27;80537;-73
2021/08/15 01:13:53;;;;;;;19.50;5.32;;;29.90;31.70;;;;;;21122110;27;80986;-73
2021/08/15 01:23:55;;;;;;;16.63;5.97;;;29.60;32.10;;;;;;21139665;27;82283;-74
2021/08/15 01:33:56;;;;;;;21.80;5.82;;;29.40;32.20;;;;;;21139465;27;79962;-73
2021/08/15 01:44:03;;;;;;;21.25;5.53;;;29.10;32.60;;;;;;21127812;27;80735;-74
2021/08/15 01:54:13;;;;;;;22.95;5.32;;;28.90;32.80;;;;;;21126652;27;80692;-73
2021/08/15 02:04:34;;;;;;;17.55;5.93;;;28.50;33.40;;;;;;21124690;27;80174;-73
2021/08/15 02:14:55;;;;;;;21.98;4.70;;;28.50;33.50;;;;;;21136401;27;82058;-73
2021/08/15 02:25:15;;;;;;;15.23;4.65;;;28.10;33.80;;;;;;21134888;27;81164;-73
2021/08/15 02:35:36;;;;;;;21.00;5.57;;;27.90;33.90;;;;;;21134633;27;82316;-73
2021/08/15 02:45:52;;;;;;;24.40;4.97;;;27.90;33.80;;;;;;21133636;27;81160;-73
2021/08/15 02:56:08;;;;;;;18.85;5.30;;;27.80;33.90;;;;;;21132261;27;80062;-72
2021/08/15 03:06:28;;;;;;;23.70;4.65;;;27.80;34.00;;;;;;21147849;27;80716;-72
2021/08/15 03:16:44;;;;;;;22.52;6.22;;;27.70;34.30;;;;;;21146319;27;81346;-74
2021/08/15 03:26:57;;;;;;;13.43;5.10;;;27.70;34.60;;;;;;21147271;27;81641;-73
2021/08/15 03:37:10;;;;;;;22.80;5.78;;;27.60;34.70;;;;;;21129851;27;80775;-73
2021/08/15 03:47:23;;;;;;;13.55;4.32;;;27.50;34.50;;;;;;21129415;27;81795;-73
2021/08/15 03:57:30;;;;;;;16.52;5.35;;;27.50;35.00;;;;;;21126892;27;80768;-73
2021/08/15 04:07:36;;;;;;;17.05;4.20;;;27.40;35.60;;;;;;21127303;27;80655;-73
2021/08/15 04:17:45;;;;;;;13.48;4.80;;;27.40;35.90;;;;;;21144212;27;81318;-74
2021/08/15 04:27:53;;;;;;;16.85;5.22;;;27.30;36.40;;;;;;21125632;27;80759;-73
2021/08/15 04:38:00;;;;;;;16.17;5.18;;;27.20;36.50;;;;;;21142929;27;80901;-73
2021/08/15 04:48:18;;;;;;;17.95;5.35;;;27.20;36.00;;;;;;21126046;27;81791;-72
2021/08/15 04:58:26;;;;;;;17.38;5.10;;;27.20;36.60;;;;;;21123283;27;81170;-73
2021/08/15 05:08:33;;;;;;;21.67;5.40;;;27.10;36.80;;;;;;21122664;27;80424;-73
2021/08/15 05:18:41;;;;;;;15.07;4.70;;;27.00;36.00;;;;;;21121985;27;81322;-73
2021/08/15 05:28:44;;;;;;;18.20;4.55;;;27.10;35.60;;;;;;21121385;27;80632;-73
2021/08/15 05:38:47;;;;;;;20.55;4.80;;;27.00;35.40;;;;;;21121922;27;80814;-73
2021/08/15 05:48:49;;;;;;;14.30;4.05;;;27.10;34.60;;;;;;21135033;27;80691;-73
2021/08/15 05:58:53;;;;;;;13.27;4.22;;;27.20;34.10;;;;;;21135339;27;80790;-73
2021/08/15 06:08:57;;;;;;;14.85;4.07;;;27.40;34.50;;;;;;21134323;27;80515;-73
2021/08/15 06:19:05;;;;;;;27.35;5.68;;;27.60;34.10;;;;;;21134592;27;81184;-72
2021/08/15 06:29:11;;;;;;;13.10;4.05;;;27.80;34.20;;;;;;21136098;27;79927;-73
2021/08/15 06:39:15;;;;;;;16.30;4.57;;;27.90;33.60;;;;;;21134368;27;81748;-74
2021/08/15 06:49:19;;;;;;;17.38;5.32;;;27.90;34.20;;;;;;21133110;27;81149;-73
2021/08/15 06:59:24;;;;;;;17.35;4.72;;;27.60;34.50;;;;;;21131137;27;80999;-75
2021/08/15 07:09:28;;;;;;;15.73;4.60;;;27.70;34.40;;;;;;21130705;27;79982;-73
2021/08/15 07:19:31;;;;;;;23.25;5.65;;;27.70;34.40;;;;;;21129806;27;80419;-75
2021/08/15 07:29:39;;;;;;;21.17;6.32;;;27.90;34.10;;;;;;21130732;27;79955;-74
2021/08/15 07:39:45;;;;;;;18.75;6.38;;;28.10;33.90;;;;;;21129395;27;79883;-74
2021/08/15 07:49:48;;;;;;;14.70;6.10;;;28.20;33.80;;;;;;21146607;27;80490;-74
2021/08/15 07:59:58;;;;;;;26.02;5.80;;;28.40;34.10;;;;;;21145073;27;80943;-74
2021/08/15 08:10:00;;;;;;;20.00;6.05;;;28.80;33.30;;;;;;21125988;27;79940;-74
2021/08/15 08:20:03;;;;;;;18.90;5.03;;;29.20;33.10;;;;;;21127052;27;80628;-73
2021/08/15 08:30:06;;;;;;;19.38;5.53;;;29.50;32.30;;;;;;21125774;27;81762;-65
2021/08/15 08:40:12;;;;;;;18.27;5.63;;;30.30;31.40;;;;;;21125238;27;81150;-64
2021/08/15 08:50:19;;;;;;;34.65;5.25;;;30.90;30.30;;;;;;21123995;27;80720;-66
2021/08/15 09:00:28;;;;;;;18.48;7.15;;;31.20;29.90;;;;;;21142602;27;80334;-64
2021/08/15 09:10:39;;;;;;;26.48;6.22;;;31.80;29.60;;;;;;21141871;27;82313;-65
2021/08/15 09:20:47;;;;;;;17.15;5.50;;;32.20;28.60;;;;;;21122420;27;80860;-67
2021/08/15 09:30:51;;;;;;;21.83;5.72;;;32.60;28.50;;;;;;21140306;27;80736;-70
2021/08/15 09:40:55;;;;;;;19.65;4.88;;;33.00;27.50;;;;;;21139638;27;80083;-67
2021/08/15 09:51:20;;;;;;;17.08;5.20;;;33.50;27.40;;;;;;21121036;27;80969;-69
2021/08/15 10:01:24;;;;;;;24.10;5.63;;;34.30;26.60;;;;;;21138003;27;80090;-70
2021/08/15 10:11:30;;;;;;;24.27;5.75;;;35.30;26.00;;;;;;21119767;27;81239;-63
2021/08/15 10:21:46;;;;;;;23.17;5.95;;;36.20;24.90;;;;;;21119105;27;81111;-63
2021/08/15 10:32:18;;;;;;;18.77;5.72;;;37.10;23.40;;;;;;21130097;27;81096;-63
2021/08/15 10:42:37;;;;;;;16.55;5.80;;;38.00;22.20;;;;;;21132424;27;81044;-67
2021/08/15 10:52:42;;;;;;;19.38;6.47;;;39.70;20.80;;;;;;21130526;27;80100;-71
2021/08/15 11:02:44;;;;;;;22.10;6.10;;;41.60;19.10;;;;;;21130212;27;80482;-73
2021/08/15 11:13:16;;;;;;;23.17;6.30;;;43.40;17.60;;;;;;21131408;27;81119;-75
2021/08/15 11:23:26;;;;;;;19.58;6.65;;;45.60;16.30;;;;;;21147541;27;82078;-68
2021/08/15 11:33:28;;;;;;;19.42;7.07;;;47.90;14.70;;;;;;21129917;27;82043;-64
2021/08/15 11:43:29;;;;;;;25.50;6.85;;;50.10;13.80;;;;;;21126780;27;79915;-65
2021/08/15 11:53:33;;;;;;;22.02;6.28;;;51.70;12.70;;;;;;21145904;27;82063;-68
2021/08/15 12:03:35;;;;;;;28.10;7.10;;;51.60;12.30;;;;;;21126203;27;81738;-70
2021/08/15 12:13:38;;;;;;;24.08;7.10;;;51.60;12.20;;;;;;21145131;27;80268;-64
2021/08/15 12:23:57;;;;;;;21.05;6.25;;;53.50;11.80;;;;;;21124949;27;82265;-67
2021/08/15 12:34:11;;;;;;;22.52;6.65;;;48.60;12.80;;;;;;21143189;27;81756;-66
2021/08/15 12:44:14;;;;;;;30.67;7.80;;;49.60;12.40;;;;;;21142287;27;81109;-64
2021/08/15 12:54:17;;;;;;;27.85;6.68;;;49.70;11.40;;;;;;21141223;27;80410;-64
2021/08/15 13:04:19;;;;;;;32.83;8.80;;;50.50;11.00;;;;;;21053699;27;80754;-64
2021/08/15 13:14:21;;;;;;;33.30;6.75;;;54.00;9.90;;;;;;21058138;27;81733;-65
2021/08/15 13:24:24;;;;;;;27.05;7.93;;;53.70;9.80;;;;;;21053201;27;79974;-64
2021/08/15 13:34:26;;;;;;;29.90;7.85;;;51.80;10.20;;;;;;21053069;27;81286;-65
2021/08/15 13:44:28;;;;;;;31.08;9.68;;;53.60;9.70;;;;;;21051994;27;81878;-67
2021/08/15 13:54:31;;;;;;;42.30;9.87;;;53.40;9.70;;;;;;21053291;27;80566;-70
2021/08/15 14:04:34;;;;;;;28.30;9.67;;;54.40;9.50;;;;;;21058870;27;80576;-64
2021/08/15 14:14:37;;;;;;;29.20;8.88;;;55.00;9.20;;;;;;21066613;27;80910;-65
2021/08/15 14:24:39;;;;;;;30.77;10.07;;;56.40;9.00;;;;;;21064262;27;80467;-64
2021/08/15 14:34:42;;;;;;;37.17;11.07;;;56.90;8.70;;;;;;21053230;27;83079;-63
2021/08/15 14:44:44;;;;;;;39.42;11.55;;;56.60;8.70;;;;;;21053762;27;83039;-64
2021/08/15 14:54:46;;;;;;;;;;;53.90;9.20;;;;;;21052824;27;82960;-65
2021/08/15 15:04:53;;;;;;;30.33;7.77;;;49.90;9.90;;;;;;21084933;27;84312;-65
2021/08/15 15:14:56;;;;;;;24.30;6.70;;;49.40;10.10;;;;;;21062309;27;80009;-64
2021/08/15 15:24:58;;;;;;;33.97;6.57;;;46.60;10.80;;;;;;21061491;27;80415;-64
2021/08/15 15:35:02;;;;;;;25.05;5.57;;;44.40;11.10;;;;;;21061223;27;80176;-64
2021/08/15 15:45:04;;;;;;;16.27;4.25;;;43.90;9.90;;;;;;21059350;27;81213;-68
2021/08/15 15:55:07;;;;;;;17.20;4.78;;;42.70;10.20;;;;;;21059706;27;82075;-66
2021/08/15 16:05:09;;;;;;;23.92;5.57;;;43.00;10.00;;;;;;21058246;27;82620;-65
2021/08/15 16:15:12;;;;;;;17.70;4.45;;;43.80;9.70;;;;;;21058099;27;80824;-66
2021/08/15 16:25:15;;;;;;;18.02;4.57;;;44.60;9.30;;;;;;21056712;27;80002;-64
2021/08/15 16:35:17;;;;;;;15.02;3.53;;;44.00;9.00;;;;;;21056755;27;81437;-64
2021/08/15 16:45:19;;;;;;;12.07;3.58;;;44.20;8.70;;;;;;21055187;27;82209;-65
2021/08/15 16:55:21;;;;;;;15.07;3.72;;;42.70;9.20;;;;;;21057227;27;79913;-75
2021/08/15 17:05:22;;;;;;;12.55;3.15;;;42.00;9.40;;;;;;21055469;27;80658;-75
2021/08/15 17:15:26;;;;;;;11.70;3.30;;;44.50;8.80;;;;;;21055924;27;81661;-72
2021/08/15 17:25:28;;;;;;;8.93;3.15;;;41.60;9.40;;;;;;21054673;27;81188;-72
2021/08/15 17:35:30;;;;;;;12.27;3.15;;;40.60;9.90;;;;;;21051635;27;79954;-73
2021/08/15 17:45:33;;;;;;;7.70;2.63;;;40.00;9.60;;;;;;21053362;27;80563;-72
2021/08/15 17:55:37;;;;;;;9.82;2.25;;;39.60;9.10;;;;;;21053487;27;81765;-73
2021/08/15 18:05:40;;;;;;;11.40;2.95;;;39.30;9.30;;;;;;21135820;27;80825;-73
2021/08/15 18:15:41;;;;;;;14.40;2.97;;;39.00;9.40;;;;;;21137175;27;80891;-72
2021/08/15 18:25:43;;;;;;;9.15;2.67;;;38.70;9.20;;;;;;21137040;27;80850;-72
2021/08/15 18:35:45;;;;;;;12.88;2.67;;;38.60;9.30;;;;;;21136149;27;81041;-75
2021/08/15 18:45:46;;;;;;;9.75;2.58;;;38.40;9.30;;;;;;21119987;27;81026;-72
2021/08/15 18:55:49;;;;;;;9.45;2.30;;;37.90;9.40;;;;;;21131290;27;81832;-72
2021/08/15 19:05:54;;;;;;;8.57;2.83;;;37.50;9.20;;;;;;21130762;27;81057;-75
2021/08/15 19:15:57;;;;;;;5.72;2.13;;;37.20;9.40;;;;;;21130825;27;81949;-72
2021/08/15 19:25:59;;;;;;;5.82;2.10;;;36.80;9.60;;;;;;21112096;27;80743;-74
2021/08/15 19:36:01;;;;;;;10.35;2.50;;;36.50;9.90;;;;;;21148304;27;81513;-72
2021/08/15 19:46:02;;;;;;;5.15;1.85;;;36.40;9.70;;;;;;21128549;27;80554;-71
2021/08/15 19:56:06;;;;;;;4.13;2.40;;;36.00;9.80;;;;;;21145909;27;80475;-72
2021/08/15 20:06:08;;;;;;;5.53;2.22;;;35.70;9.70;;;;;;21125928;27;80680;-73
2021/08/15 20:16:10;;;;;;;4.55;2.63;;;35.40;9.80;;;;;;21144795;27;81085;-73
2021/08/15 20:26:11;;;;;;;5.40;2.30;;;35.10;9.90;;;;;;21124762;27;81085;-72
2021/08/15 20:36:13;;;;;;;2.88;1.90;;;34.80;10.40;;;;;;21127241;27;80885;-72
2021/08/15 20:46:15;;;;;;;4.57;2.47;;;34.50;11.00;;;;;;21143427;27;82059;-73
2021/08/15 20:56:17;;;;;;;5.47;2.38;;;34.10;11.00;;;;;;21123730;27;80551;-72
2021/08/15 21:06:21;;;;;;;5.93;2.58;;;33.80;11.10;;;;;;21123041;27;82218;-75
2021/08/15 21:16:23;;;;;;;2.70;2.10;;;33.50;11.70;;;;;;21123132;27;81188;-71
2021/08/15 21:26:25;;;;;;;3.42;2.17;;;33.30;11.60;;;;;;21120955;27;80731;-72
2021/08/15 21:36:28;;;;;;;6.50;2.78;;;33.10;11.90;;;;;;21139793;27;81300;-72
2021/08/15 21:46:30;;;;;;;4.57;2.30;;;32.70;12.70;;;;;;21120520;27;80721;-72
2021/08/15 21:56:33;;;;;;;5.15;2.80;;;32.30;14.30;;;;;;21138546;27;80882;-71
2021/08/15 22:06:35;;;;;;;4.47;2.90;;;31.90;15.00;;;;;;21138059;27;80880;-72
2021/08/15 22:16:38;;;;;;;6.43;2.55;;;31.70;14.90;;;;;;21119270;27;80990;-73
2021/08/15 22:26:40;;;;;;;3.30;2.15;;;31.40;14.60;;;;;;21129415;27;82808;-72
2021/08/15 22:36:43;;;;;;;3.65;2.92;;;31.30;14.80;;;;;;21151154;27;80140;-72
2021/08/15 22:46:44;;;;;;;6.75;2.67;;;31.10;14.40;;;;;;21150561;27;80801;-72
2021/08/15 22:56:47;;;;;;;5.45;2.67;;;30.90;15.90;;;;;;21149343;27;79988;-73
2021/08/15 23:06:49;;;;;;;3.95;3.15;;;30.60;16.30;;;;;;21148950;27;80964;-72
2021/08/15 23:16:50;;;;;;;9.95;3.47;;;30.30;16.90;;;;;;21131005;27;80838;-72
2021/08/15 23:26:52;;;;;;;7.35;3.05;;;29.90;18.50;;;;;;21148825;27;81073;-72
2021/08/15 23:36:54;;;;;;;4.47;3.20;;;29.60;18.60;;;;;;21146364;27;79922;-73
2021/08/15 23:46:56;;;;;;;4.80;3.50;;;29.50;19.10;;;;;;21127940;27;81687;-72
2021/08/15 23:56:58;;;;;;;7.35;2.88;;;29.30;19.50;;;;;;21146292;27;81503;-72
